Time;durP1;ratioP1;P1;durP2;ratioP2;P2;SDS_P1;SDS_P2;PMS_P1;PMS_P2;Temp;Humidity;BMP_temperature;BMP_pressure;BME280_temperature;BME280_humidity;BME280_pressure;Samples;Min_cycle;Max_cycle;Signal;HPM_P1;HPM_P2
2022/10/05 00:00:52;;;;;;;5.18;2.70;;;13.90;96.90;;;;;;5132739;27;20035;-66
2022/10/05 00:03:19;;;;;;;5.80;2.42;;;13.90;96.80;;;;;;5117851;27;20046;-67
2022/10/05 00:05:45;;;;;;;8.87;2.77;;;13.90;96.90;;;;;;5128616;27;20039;-66
2022/10/05 00:08:18;;;;;;;8.18;3.20;;;13.90;97.00;;;;;;5089618;27;20118;-67
2022/10/05 00:10:44;;;;;;;5.90;2.90;;;13.90;97.20;;;;;;5146236;27;20046;-66
2022/10/05 00:13:27;;;;;;;11.70;4.88;;;13.90;97.10;;;;;;5113254;27;20058;-66
2022/10/05 00:16:12;;;;;;;11.02;3.30;;;13.80;97.30;;;;;;5099319;27;20476;-67
2022/10/05 00:18:38;;;;;;;8.27;3.00;;;13.80;97.30;;;;;;5129156;27;20454;-66
2022/10/05 00:21:22;;;;;;;7.13;3.30;;;13.80;97.20;;;;;;5124300;27;20047;-66
2022/10/05 00:23:49;;;;;;;7.82;3.47;;;13.80;97.30;;;;;;5111143;27;20483;-66
2022/10/05 00:26:23;;;;;;;8.52;3.70;;;13.90;97.20;;;;;;5099602;27;20061;-67
2022/10/05 00:28:49;;;;;;;7.90;3.33;;;13.80;97.10;;;;;;5133704;27;20042;-67
2022/10/05 00:31:25;;;;;;;8.32;3.80;;;13.90;97.10;;;;;;5111218;27;20087;-67
2022/10/05 00:33:51;;;;;;;8.20;3.85;;;13.90;97.00;;;;;;5127801;27;20069;-67
2022/10/05 00:36:16;;;;;;;7.57;3.80;;;13.90;97.10;;;;;;5099395;27;20504;-66
2022/10/05 00:38:42;;;;;;;11.75;4.07;;;13.80;97.50;;;;;;5146286;27;20043;-67
2022/10/05 00:41:23;;;;;;;9.15;3.67;;;13.80;97.40;;;;;;5133973;27;20069;-67
2022/10/05 00:44:11;;;;;;;8.05;4.13;;;13.80;97.50;;;;;;5100413;27;20034;-67
2022/10/05 00:47:25;;;;;;;7.00;3.65;;;13.80;97.40;;;;;;5132606;27;20551;-66
2022/10/05 00:50:08;;;;;;;9.02;4.18;;;13.70;97.40;;;;;;5124777;27;20070;-66
2022/10/05 00:53:11;;;;;;;6.50;3.10;;;13.70;97.40;;;;;;5133943;27;20046;-66
2022/10/05 00:56:10;;;;;;;7.90;3.63;;;13.70;97.40;;;;;;5096194;27;20135;-68
2022/10/05 00:59:09;;;;;;;13.60;3.40;;;13.60;97.60;;;;;;5102537;27;20042;-67
2022/10/05 01:01:54;;;;;;;8.38;3.65;;;13.60;97.70;;;;;;5117925;27;20169;-67
2022/10/05 01:04:52;;;;;;;10.23;4.15;;;13.60;98.10;;;;;;5123596;27;20054;-67
2022/10/05 01:07:28;;;;;;;13.55;4.30;;;13.60;98.20;;;;;;5110016;27;20069;-68
2022/10/05 01:10:26;;;;;;;8.15;4.53;;;13.60;98.20;;;;;;5144545;27;20516;-68
2022/10/05 01:13:10;;;;;;;;;;;13.50;98.50;;;;;;5087708;27;20046;-68
2022/10/05 01:16:08;;;;;;;9.05;4.43;;;13.50;98.30;;;;;;5150465;27;20329;-69
2022/10/05 01:18:44;;;;;;;13.07;4.10;;;13.50;98.30;;;;;;5116778;27;20410;-67
2022/10/05 01:21:18;;;;;;;7.60;4.25;;;13.50;98.30;;;;;;5126019;27;20042;-67
2022/10/05 01:24:41;;;;;;;9.68;3.78;;;13.50;98.20;;;;;;5088735;27;20073;-67
2022/10/05 01:28:01;;;;;;;7.82;3.53;;;13.50;98.20;;;;;;5043411;28;20566;-66
2022/10/05 01:30:27;;;;;;;7.60;3.90;;;13.50;98.30;;;;;;4979547;28;20057;-66
2022/10/05 01:33:20;;;;;;;6.97;3.60;;;13.50;98.20;;;;;;5095850;27;20086;-66
2022/10/05 01:36:18;;;;;;;8.70;3.22;;;13.50;98.10;;;;;;5146227;27;20076;-66
2022/10/05 01:39:04;;;;;;;8.00;3.13;;;13.50;98.20;;;;;;5130749;27;20047;-66
2022/10/05 01:41:54;;;;;;;7.55;3.25;;;13.50;98.20;;;;;;5127335;27;20514;-66
2022/10/05 01:44:42;;;;;;;8.35;3.40;;;13.50;98.20;;;;;;5132443;27;20088;-66
2022/10/05 01:47:21;;;;;;;3.83;2.60;;;13.50;98.10;;;;;;5107753;27;20459;-66
2022/10/05 01:49:50;;;;;;;9.88;3.35;;;13.40;98.10;;;;;;5150441;27;20129;-65
2022/10/05 01:52:24;;;;;;;11.13;3.28;;;13.40;98.20;;;;;;5122087;27;20460;-66
2022/10/05 01:54:50;;;;;;;7.53;2.92;;;13.50;98.10;;;;;;5108314;27;20872;-66
2022/10/05 01:57:16;;;;;;;6.05;2.83;;;13.50;98.10;;;;;;5102119;27;20047;-67
2022/10/05 01:59:47;;;;;;;8.20;2.60;;;13.40;98.20;;;;;;5128107;27;20441;-66
2022/10/05 02:02:17;;;;;;;5.38;2.58;;;13.50;98.10;;;;;;5151126;27;20042;-66
2022/10/05 02:05:07;;;;;;;5.90;3.00;;;13.50;98.10;;;;;;5113839;27;20035;-66
2022/10/05 02:07:37;;;;;;;5.63;2.80;;;13.50;98.20;;;;;;5088354;28;20554;-67
2022/10/05 02:10:21;;;;;;;5.07;2.63;;;13.50;98.20;;;;;;5088977;27;20065;-66
2022/10/05 02:12:47;;;;;;;5.53;2.45;;;13.40;98.30;;;;;;5147861;27;20058;-66
2022/10/05 02:15:16;;;;;;;8.18;2.95;;;13.40;98.30;;;;;;5113630;27;20062;-65
2022/10/05 02:17:47;;;;;;;;;;;13.40;98.30;;;;;;5102699;27;20054;-66
2022/10/05 02:20:16;;;;;;;7.20;3.28;;;13.40;98.40;;;;;;5118932;27;19918;-66
2022/10/05 02:22:45;;;;;;;5.70;2.88;;;13.50;98.30;;;;;;5115674;27;20122;-66
2022/10/05 02:25:20;;;;;;;5.78;2.97;;;13.40;98.40;;;;;;5108113;27;20039;-65
2022/10/05 02:28:33;;;;;;;7.78;3.20;;;13.40;98.40;;;;;;5112346;27;20107;-66
2022/10/05 02:31:09;;;;;;;6.47;3.20;;;13.50;98.30;;;;;;5045365;28;20330;-66
2022/10/05 02:33:35;;;;;;;5.68;3.20;;;13.50;98.40;;;;;;5127835;27;20054;-65
2022/10/05 02:36:15;;;;;;;6.22;3.33;;;13.50;98.40;;;;;;5135364;27;20058;-65
2022/10/05 02:38:59;;;;;;;5.22;2.88;;;13.50;98.40;;;;;;5119732;27;20051;-65
2022/10/05 02:41:34;;;;;;;7.18;3.30;;;13.50;98.40;;;;;;5143752;27;20075;-66
2022/10/05 02:44:22;;;;;;;6.28;3.20;;;13.50;98.50;;;;;;5125559;27;20113;-67
2022/10/05 02:47:03;;;;;;;5.63;3.00;;;13.50;98.40;;;;;;5141578;27;20089;-66
2022/10/05 02:49:40;;;;;;;7.57;3.25;;;13.50;98.30;;;;;;5125088;27;20043;-66
2022/10/05 02:52:12;;;;;;;9.65;3.70;;;13.50;98.40;;;;;;5111639;27;20492;-65
2022/10/05 02:55:00;;;;;;;8.45;3.42;;;13.50;98.30;;;;;;5110242;27;20050;-65
2022/10/05 02:57:39;;;;;;;10.70;4.10;;;13.50;98.40;;;;;;5132101;27;20053;-65
2022/10/05 03:00:09;;;;;;;10.05;5.00;;;13.50;98.40;;;;;;5153991;27;20062;-68
2022/10/05 03:02:50;;;;;;;12.52;4.85;;;13.50;98.40;;;;;;5151361;27;20043;-65
2022/10/05 03:05:20;;;;;;;9.95;5.35;;;13.50;98.40;;;;;;5147605;27;20401;-66
2022/10/05 03:07:56;;;;;;;11.77;4.78;;;13.50;98.50;;;;;;5093590;27;20130;-65
2022/10/05 03:10:36;;;;;;;7.82;4.07;;;13.50;98.70;;;;;;5113122;27;20498;-66
2022/10/05 03:13:04;;;;;;;9.68;4.72;;;13.50;98.60;;;;;;5134961;27;20047;-66
2022/10/05 03:15:55;;;;;;;11.18;4.22;;;13.50;98.70;;;;;;5147637;27;20394;-66
2022/10/05 03:18:32;;;;;;;9.50;4.80;;;13.50;98.80;;;;;;5135670;27;20052;-65
2022/10/05 03:21:24;;;;;;;10.27;4.43;;;13.50;98.80;;;;;;5147819;27;20034;-67
2022/10/05 03:24:30;;;;;;;11.45;4.80;;;13.50;98.70;;;;;;5114715;27;20039;-67
2022/10/05 03:27:27;;;;;;;10.82;4.82;;;13.50;98.90;;;;;;5149981;27;20047;-66
2022/10/05 03:30:17;;;;;;;9.77;4.60;;;13.40;98.80;;;;;;5134321;27;20038;-66
2022/10/05 03:32:49;;;;;;;8.55;4.55;;;13.50;98.80;;;;;;5135015;27;20618;-67
2022/10/05 03:35:31;;;;;;;11.48;4.40;;;13.40;98.80;;;;;;5118136;27;20058;-67
2022/10/05 03:38:04;;;;;;;9.90;3.90;;;13.40;98.80;;;;;;5113270;27;20054;-65
2022/10/05 03:41:04;;;;;;;11.05;4.60;;;13.40;98.70;;;;;;5145445;27;20047;-67
2022/10/05 03:43:53;;;;;;;7.13;3.85;;;13.40;98.70;;;;;;5121938;27;20119;-66
2022/10/05 03:46:55;;;;;;;7.50;3.90;;;13.40;98.70;;;;;;5116767;27;20054;-66
2022/10/05 03:49:43;;;;;;;11.27;4.00;;;13.40;98.80;;;;;;5111492;27;20482;-66
2022/10/05 03:52:35;;;;;;;7.57;3.42;;;13.40;99.10;;;;;;5132138;27;20034;-67
2022/10/05 03:55:32;;;;;;;9.90;4.50;;;13.40;98.90;;;;;;5126084;27;20112;-66
2022/10/05 03:58:01;;;;;;;10.40;3.85;;;13.40;98.80;;;;;;5153056;27;20050;-65
2022/10/05 04:00:26;;;;;;;;;;;13.30;98.80;;;;;;5097835;27;20061;-66
2022/10/05 04:02:54;;;;;;;9.20;3.63;;;13.30;99.10;;;;;;5128130;27;20239;-67
2022/10/05 04:05:41;;;;;;;7.85;3.95;;;13.20;99.20;;;;;;5121448;27;20042;-67
2022/10/05 04:08:10;;;;;;;9.23;3.67;;;13.30;99.10;;;;;;5117386;27;20104;-66
2022/10/05 04:10:53;;;;;;;7.10;3.50;;;13.30;99.10;;;;;;5109843;27;20071;-67
2022/10/05 04:13:35;;;;;;;6.45;3.50;;;13.30;99.10;;;;;;5105676;27;20155;-67
2022/10/05 04:16:09;;;;;;;8.07;3.67;;;13.30;99.10;;;;;;5110785;27;20039;-68
2022/10/05 04:18:42;;;;;;;7.20;4.03;;;13.30;99.10;;;;;;5133104;27;20049;-68
2022/10/05 04:21:23;;;;;;;6.68;4.10;;;13.20;99.10;;;;;;5080030;27;20353;-66
2022/10/05 04:23:59;;;;;;;12.45;4.05;;;13.20;99.20;;;;;;5105512;27;20043;-67
2022/10/05 04:26:53;;;;;;;6.93;4.03;;;13.20;99.30;;;;;;5128745;27;20069;-66
2022/10/05 04:29:38;;;;;;;12.20;4.88;;;13.20;99.30;;;;;;5113760;27;20070;-66
2022/10/05 04:32:08;;;;;;;8.00;3.78;;;13.20;99.50;;;;;;5130660;27;20076;-67
2022/10/05 04:34:55;;;;;;;9.77;4.78;;;13.20;99.40;;;;;;5115988;27;20063;-67
2022/10/05 04:37:34;;;;;;;13.50;4.60;;;13.20;99.30;;;;;;5126994;27;20076;-67
2022/10/05 04:40:06;;;;;;;9.80;4.32;;;13.20;99.40;;;;;;5128662;27;20042;-68
2022/10/05 04:42:39;;;;;;;7.93;4.55;;;13.20;99.50;;;;;;5144858;27;20716;-67
2022/10/05 04:45:25;;;;;;;9.05;4.63;;;13.20;99.40;;;;;;5121451;27;20070;-65
2022/10/05 04:48:32;;;;;;;8.10;3.78;;;13.20;99.50;;;;;;5110567;27;20777;-66
2022/10/05 04:51:30;;;;;;;7.85;3.88;;;13.10;99.70;;;;;;5131845;27;20162;-67
2022/10/05 04:54:01;;;;;;;7.40;4.13;;;13.00;99.90;;;;;;5138135;27;20136;-66
2022/10/05 04:56:46;;;;;;;10.65;4.32;;;13.00;99.90;;;;;;5146200;27;20805;-65
2022/10/05 04:59:39;;;;;;;10.00;4.10;;;13.00;99.90;;;;;;5120080;27;20482;-68
2022/10/05 05:02:16;;;;;;;10.05;4.03;;;12.90;99.90;;;;;;5104753;27;20050;-65
2022/10/05 05:05:23;;;;;;;11.25;3.97;;;13.00;99.90;;;;;;5120756;27;20035;-66
2022/10/05 05:08:11;;;;;;;9.63;4.22;;;13.00;99.90;;;;;;5126587;27;20126;-66
2022/10/05 05:10:38;;;;;;;;;;;13.00;99.90;;;;;;5140681;27;20081;-67
2022/10/05 05:13:44;;;;;;;10.05;4.10;;;12.90;99.90;;;;;;5144942;27;19976;-69
2022/10/05 05:16:11;;;;;;;9.25;4.20;;;13.00;99.90;;;;;;5118943;27;20111;-66
2022/10/05 05:19:10;;;;;;;7.53;4.38;;;13.00;99.90;;;;;;5109927;27;20138;-66
2022/10/05 05:21:46;;;;;;;6.50;3.90;;;13.00;99.90;;;;;;5107069;27;20041;-67
2022/10/05 05:24:49;;;;;;;9.43;4.30;;;13.00;99.90;;;;;;5112094;27;20116;-66
2022/10/05 05:27:30;;;;;;;8.43;4.50;;;13.00;99.90;;;;;;5125630;27;20119;-67
2022/10/05 05:30:01;;;;;;;10.25;4.93;;;12.90;99.90;;;;;;5149751;27;20523;-67
2022/10/05 05:32:56;;;;;;;10.85;4.55;;;13.00;99.90;;;;;;5138639;27;20051;-67
2022/10/05 05:35:52;;;;;;;11.23;5.60;;;13.00;99.90;;;;;;5103919;27;20116;-65
2022/10/05 05:38:46;;;;;;;12.35;5.20;;;13.00;99.90;;;;;;5144151;27;20138;-66
2022/10/05 05:41:26;;;;;;;13.23;5.60;;;13.00;99.90;;;;;;5110968;27;20117;-65
2022/10/05 05:44:00;;;;;;;10.80;5.40;;;13.00;99.90;;;;;;5108830;27;20487;-66
2022/10/05 05:46:54;;;;;;;11.65;5.38;;;13.00;99.90;;;;;;5138765;27;20067;-64
2022/10/05 05:49:26;;;;;;;12.73;6.22;;;13.10;99.90;;;;;;5126444;27;20050;-66
2022/10/05 05:51:55;;;;;;;6.47;4.43;;;13.10;99.90;;;;;;5129245;27;20038;-66
2022/10/05 05:54:27;;;;;;;10.50;4.70;;;13.10;99.90;;;;;;5091461;27;20785;-66
2022/10/05 05:57:10;;;;;;;12.27;4.32;;;13.10;99.90;;;;;;5115876;27;20042;-65
2022/10/05 06:00:04;;;;;;;9.85;5.05;;;13.10;99.90;;;;;;5094234;27;20381;-67
2022/10/05 06:03:01;;;;;;;8.20;4.50;;;13.10;99.90;;;;;;5136260;27;20707;-66
2022/10/05 06:05:32;;;;;;;7.65;5.05;;;13.10;99.90;;;;;;5111029;27;20039;-66
2022/10/05 06:08:02;;;;;;;12.88;5.20;;;13.20;99.90;;;;;;5105397;27;20050;-65
2022/10/05 06:10:40;;;;;;;10.50;5.15;;;13.20;99.90;;;;;;5109293;27;20047;-68
2022/10/05 06:13:36;;;;;;;10.48;5.13;;;13.20;99.90;;;;;;5124797;27;20046;-66
2022/10/05 06:16:17;;;;;;;12.75;5.43;;;13.20;99.90;;;;;;5131290;27;20082;-66
2022/10/05 06:18:46;;;;;;;11.45;6.75;;;13.20;99.90;;;;;;5102132;27;20043;-65
2022/10/05 06:21:26;;;;;;;13.68;6.90;;;13.20;99.90;;;;;;5113989;27;20039;-65
2022/10/05 06:23:58;;;;;;;10.27;5.53;;;13.20;99.90;;;;;;5131478;27;20150;-67
2022/10/05 06:26:38;;;;;;;11.98;5.38;;;13.20;99.90;;;;;;5109249;27;20047;-67
2022/10/05 06:29:07;;;;;;;10.10;5.20;;;13.20;99.90;;;;;;5125963;27;20034;-67
2022/10/05 06:31:44;;;;;;;11.07;5.75;;;13.20;99.90;;;;;;5071652;27;20126;-65
2022/10/05 06:34:36;;;;;;;10.27;5.35;;;13.20;99.90;;;;;;5140860;27;20066;-66
2022/10/05 06:37:06;;;;;;;10.65;5.82;;;13.20;99.90;;;;;;5128083;27;20043;-66
2022/10/05 06:39:40;;;;;;;11.38;5.47;;;13.20;99.90;;;;;;5113454;27;20035;-67
2022/10/05 06:42:25;;;;;;;11.43;5.63;;;13.20;99.90;;;;;;5154388;27;20062;-66
2022/10/05 06:44:55;;;;;;;11.10;5.22;;;13.30;99.90;;;;;;5147892;27;20039;-66
2022/10/05 06:47:46;;;;;;;10.88;5.20;;;13.30;99.90;;;;;;5114392;27;20058;-66
2022/10/05 06:50:29;;;;;;;7.70;5.07;;;13.30;99.90;;;;;;5128366;27;20043;-66
2022/10/05 06:53:17;;;;;;;8.73;5.13;;;13.40;99.90;;;;;;5091327;27;20125;-65
2022/10/05 06:56:02;;;;;;;7.35;4.82;;;13.50;99.90;;;;;;5118956;27;20043;-65
2022/10/05 06:58:52;;;;;;;16.20;4.93;;;13.50;99.90;;;;;;5128941;27;20062;-69
2022/10/05 07:01:53;;;;;;;7.82;4.47;;;13.60;99.90;;;;;;5150476;27;20368;-69
2022/10/05 07:04:54;;;;;;;7.40;4.70;;;13.90;99.90;;;;;;5109299;27;20038;-70
2022/10/05 07:07:31;;;;;;;8.50;4.70;;;13.90;99.90;;;;;;5130508;27;20098;-69
2022/10/05 07:10:21;;;;;;;7.28;4.20;;;14.00;99.90;;;;;;5105055;27;20176;-69
2022/10/05 07:13:29;;;;;;;13.50;5.30;;;14.10;99.80;;;;;;5101117;27;20078;-69
2022/10/05 07:15:58;;;;;;;;;;;14.10;99.70;;;;;;5098461;27;20460;-70
2022/10/05 07:18:43;;;;;;;9.48;5.40;;;14.20;99.70;;;;;;5132004;27;19922;-70
2022/10/05 07:21:18;;;;;;;9.27;4.82;;;14.20;99.90;;;;;;5133207;27;20372;-69
2022/10/05 07:24:10;;;;;;;9.57;5.00;;;14.20;99.70;;;;;;5115743;27;20039;-70
2022/10/05 07:26:50;;;;;;;9.05;5.10;;;14.20;99.70;;;;;;5116869;27;20072;-69
2022/10/05 07:29:36;;;;;;;10.95;4.72;;;14.20;99.80;;;;;;5090341;27;20111;-70
2022/10/05 07:33:04;;;;;;;9.82;4.95;;;14.20;99.90;;;;;;5091326;27;20036;-70
2022/10/05 07:38:50;;;;;;;8.02;4.93;;;14.30;99.60;;;;;;5062427;28;20413;-68
2022/10/05 07:41:21;;;;;;;10.07;5.10;;;14.30;99.50;;;;;;5116620;27;20043;-69
2022/10/05 07:44:05;;;;;;;10.77;5.28;;;14.50;99.70;;;;;;5118653;27;20045;-68
2022/10/05 07:46:50;;;;;;;10.00;4.72;;;14.50;99.30;;;;;;5134876;27;20043;-68
2022/10/05 07:49:40;;;;;;;7.82;5.20;;;14.60;99.30;;;;;;5111857;27;20035;-69
2022/10/05 07:52:11;;;;;;;12.48;6.05;;;14.70;99.40;;;;;;5114877;27;20049;-68
2022/10/05 07:54:56;;;;;;;8.23;4.50;;;14.80;99.00;;;;;;5098924;27;20043;-71
2022/10/05 07:57:59;;;;;;;10.55;4.45;;;14.90;98.80;;;;;;5152699;27;20042;-70
2022/10/05 08:00:59;;;;;;;10.63;4.85;;;15.00;99.10;;;;;;5142910;27;20063;-70
2022/10/05 08:03:29;;;;;;;9.77;5.28;;;15.00;98.70;;;;;;5120060;27;20539;-68
2022/10/05 08:05:55;;;;;;;8.05;4.90;;;15.00;98.90;;;;;;5100581;27;20344;-69
2022/10/05 08:08:44;;;;;;;7.80;4.13;;;15.10;98.80;;;;;;5081933;27;20050;-70
2022/10/05 08:11:16;;;;;;;10.98;5.28;;;15.10;98.90;;;;;;5113059;27;20051;-70
2022/10/05 08:13:54;;;;;;;11.43;5.20;;;15.10;98.10;;;;;;5111770;27;20078;-69
2022/10/05 08:16:19;;;;;;;10.55;4.53;;;15.10;98.50;;;;;;5151108;27;20054;-67
2022/10/05 08:18:54;;;;;;;6.75;4.40;;;15.10;98.40;;;;;;5097098;27;20086;-68
2022/10/05 08:21:42;;;;;;;10.18;5.15;;;15.10;98.30;;;;;;5146517;27;20049;-68
2022/10/05 08:24:34;;;;;;;10.27;4.47;;;15.10;98.20;;;;;;5111647;27;20050;-69
2022/10/05 08:27:19;;;;;;;7.97;4.70;;;15.10;98.40;;;;;;5118711;27;20042;-69
2022/10/05 08:30:04;;;;;;;15.68;5.43;;;15.20;98.40;;;;;;5094224;27;20126;-69
2022/10/05 08:32:49;;;;;;;9.98;4.80;;;15.10;98.20;;;;;;5134390;27;20038;-69
2022/10/05 08:35:25;;;;;;;8.30;4.78;;;15.10;98.30;;;;;;5140366;27;20058;-70
2022/10/05 08:37:50;;;;;;;7.60;4.53;;;15.00;98.30;;;;;;5091062;27;20047;-70
2022/10/05 08:40:25;;;;;;;7.95;4.63;;;15.00;98.30;;;;;;5134920;27;20116;-70
2022/10/05 08:43:13;;;;;;;7.90;5.40;;;15.00;98.20;;;;;;5148730;27;20038;-70
2022/10/05 08:45:41;;;;;;;9.20;4.90;;;15.00;98.50;;;;;;5113232;27;20039;-68
2022/10/05 08:48:22;;;;;;;9.18;4.88;;;15.00;98.50;;;;;;5129914;27;20054;-68
2022/10/05 08:51:27;;;;;;;11.77;5.00;;;15.00;98.60;;;;;;5114373;27;20038;-69
2022/10/05 08:54:21;;;;;;;9.45;5.35;;;15.10;98.50;;;;;;5093203;27;20042;-70
2022/10/05 08:57:23;;;;;;;9.75;5.35;;;15.10;98.80;;;;;;5091339;27;20426;-71
2022/10/05 09:00:07;;;;;;;11.68;5.15;;;15.00;98.30;;;;;;5114271;27;20035;-69
2022/10/05 09:02:46;;;;;;;10.40;5.30;;;15.20;98.40;;;;;;5108451;27;20091;-70
2022/10/05 09:05:37;;;;;;;9.07;5.07;;;15.20;98.20;;;;;;5138359;27;20067;-70
2022/10/05 09:08:21;;;;;;;6.93;4.97;;;15.30;98.00;;;;;;5145453;27;20431;-70
2022/10/05 09:11:22;;;;;;;10.07;4.75;;;15.30;97.50;;;;;;5126871;27;20049;-69
2022/10/05 09:14:08;;;;;;;10.00;4.78;;;15.40;97.50;;;;;;5066423;27;20489;-69
2022/10/05 09:16:37;;;;;;;11.40;5.05;;;15.50;97.60;;;;;;5107659;27;20046;-69
2022/10/05 09:19:05;;;;;;;;;;;15.60;97.10;;;;;;5144248;27;20126;-68
2022/10/05 09:21:43;;;;;;;10.55;4.57;;;15.60;96.80;;;;;;5120666;27;20703;-70
2022/10/05 09:24:33;;;;;;;6.70;4.75;;;15.70;96.80;;;;;;5114439;27;20043;-68
2022/10/05 09:27:18;;;;;;;14.48;5.03;;;15.70;96.80;;;;;;5125105;27;20054;-68
2022/10/05 09:30:02;;;;;;;7.90;4.30;;;15.90;96.90;;;;;;5090493;27;20047;-69
2022/10/05 09:32:50;;;;;;;6.55;4.15;;;16.00;97.00;;;;;;5151228;27;20404;-69
2022/10/05 09:35:34;;;;;;;6.85;4.78;;;16.20;96.90;;;;;;5132267;27;20059;-68
2022/10/05 09:38:30;;;;;;;10.75;5.63;;;16.30;96.40;;;;;;5145132;27;20494;-67
2022/10/05 09:41:19;;;;;;;10.35;5.25;;;16.40;95.90;;;;;;5106027;27;20535;-69
2022/10/05 09:44:17;;;;;;;10.13;5.00;;;16.40;95.60;;;;;;5118291;27;20055;-68
2022/10/05 09:47:21;;;;;;;8.10;4.85;;;16.50;96.00;;;;;;5142124;27;20035;-69
2022/10/05 09:50:45;;;;;;;7.43;4.80;;;16.60;95.50;;;;;;5140297;27;20042;-68
2022/10/05 09:53:22;;;;;;;9.20;5.07;;;16.50;95.70;;;;;;5061278;27;20043;-68
2022/10/05 09:56:34;;;;;;;8.23;5.13;;;16.40;95.70;;;;;;5100376;27;20444;-68
2022/10/05 09:59:51;;;;;;;9.45;5.50;;;16.40;95.70;;;;;;5107037;27;20157;-70
2022/10/05 10:02:38;;;;;;;10.50;5.47;;;16.40;95.80;;;;;;5048124;28;20051;-70
2022/10/05 10:05:18;;;;;;;11.00;5.45;;;16.50;96.00;;;;;;5060329;28;20074;-69
2022/10/05 10:07:56;;;;;;;10.05;5.03;;;16.30;95.90;;;;;;5090034;27;20043;-69
2022/10/05 10:10:51;;;;;;;10.18;5.22;;;16.30;96.30;;;;;;5149575;27;20155;-69
2022/10/05 10:13:35;;;;;;;14.63;5.47;;;16.20;96.20;;;;;;5110899;27;20054;-70
2022/10/05 10:16:09;;;;;;;10.57;6.07;;;16.20;96.40;;;;;;5146450;27;20043;-70
2022/10/05 10:18:56;;;;;;;7.65;5.28;;;16.20;96.30;;;;;;5108049;27;20042;-69
2022/10/05 10:21:42;;;;;;;10.20;5.85;;;16.20;96.00;;;;;;5143514;27;20639;-69
2022/10/05 10:24:23;;;;;;;13.73;6.82;;;16.10;96.10;;;;;;5130699;27;20066;-69
2022/10/05 10:27:28;;;;;;;11.25;6.03;;;16.20;96.00;;;;;;5149497;27;20042;-71
2022/10/05 10:30:19;;;;;;;11.93;5.65;;;16.10;95.90;;;;;;5117228;27;20054;-69
2022/10/05 10:33:20;;;;;;;8.27;5.68;;;16.20;96.40;;;;;;5128664;27;20481;-69
2022/10/05 10:36:05;;;;;;;14.02;5.40;;;16.10;96.30;;;;;;5132431;27;20046;-70
2022/10/05 10:38:53;;;;;;;10.70;5.68;;;16.10;96.00;;;;;;5131999;27;20082;-70
2022/10/05 10:41:50;;;;;;;8.90;6.10;;;16.00;96.00;;;;;;5128123;27;20345;-70
2022/10/05 10:44:31;;;;;;;8.20;5.65;;;16.00;96.20;;;;;;5096260;27;20044;-69
2022/10/05 10:47:36;;;;;;;8.82;6.10;;;16.00;96.30;;;;;;5102522;27;20122;-68
2022/10/05 10:50:27;;;;;;;9.27;5.60;;;15.90;96.20;;;;;;5126335;27;20091;-70
2022/10/05 10:53:38;;;;;;;7.50;5.35;;;15.80;96.80;;;;;;5126226;27;20095;-69
2022/10/05 10:56:10;;;;;;;9.02;5.22;;;15.80;96.30;;;;;;5093725;27;20070;-70
2022/10/05 10:58:51;;;;;;;9.43;5.57;;;15.90;96.70;;;;;;5143988;27;20042;-71
2022/10/05 11:01:42;;;;;;;8.27;5.20;;;15.80;96.10;;;;;;5106295;27;20049;-70
2022/10/05 11:04:45;;;;;;;7.32;5.55;;;15.80;96.20;;;;;;5124073;27;20569;-67
2022/10/05 11:07:11;;;;;;;8.02;5.75;;;15.70;96.40;;;;;;5147557;27;20688;-66
2022/10/05 11:10:15;;;;;;;8.85;5.05;;;15.70;96.40;;;;;;5142815;27;20047;-64
2022/10/05 11:13:02;;;;;;;9.73;5.88;;;15.80;96.60;;;;;;5113075;27;20039;-64
2022/10/05 11:16:06;;;;;;;11.25;5.72;;;15.70;96.30;;;;;;5115448;27;20042;-64
2022/10/05 11:19:09;;;;;;;9.32;5.85;;;15.70;96.50;;;;;;5133437;27;20057;-65
2022/10/05 11:21:57;;;;;;;6.60;5.07;;;15.70;96.70;;;;;;5129295;27;20138;-64
2022/10/05 11:24:53;;;;;;;7.65;5.40;;;15.70;96.40;;;;;;5144744;27;20540;-64
2022/10/05 11:27:39;;;;;;;9.65;5.45;;;15.70;96.20;;;;;;5149605;27;20517;-67
2022/10/05 11:30:17;;;;;;;6.85;5.20;;;15.70;96.30;;;;;;5086172;27;20112;-65
2022/10/05 11:33:14;;;;;;;8.07;5.72;;;15.80;96.80;;;;;;5139631;27;20066;-65
2022/10/05 11:35:45;;;;;;;9.07;5.47;;;15.80;96.10;;;;;;5099286;28;20232;-65
2022/10/05 11:38:29;;;;;;;8.15;5.15;;;15.70;96.50;;;;;;5098634;28;20059;-65
2022/10/05 11:41:45;;;;;;;7.70;5.00;;;15.80;96.60;;;;;;5118861;27;20039;-65
2022/10/05 11:44:47;;;;;;;6.57;4.63;;;15.80;96.90;;;;;;5032947;28;20041;-66
2022/10/05 11:47:44;;;;;;;8.80;4.45;;;15.90;96.70;;;;;;5103226;28;20040;-65
2022/10/05 11:50:16;;;;;;;9.57;5.15;;;15.80;96.30;;;;;;5104337;28;20392;-66
2022/10/05 11:53:05;;;;;;;6.05;4.50;;;15.80;95.90;;;;;;5106425;28;20044;-65
2022/10/05 11:55:56;;;;;;;6.40;4.28;;;15.80;96.50;;;;;;5096479;28;20051;-65
2022/10/05 11:58:25;;;;;;;8.95;4.53;;;15.70;96.00;;;;;;5104827;28;20044;-64
2022/10/05 12:01:14;;;;;;;8.65;4.68;;;15.80;96.10;;;;;;5070516;28;20578;-65
2022/10/05 12:04:16;;;;;;;8.60;4.70;;;15.80;96.00;;;;;;5078125;28;20105;-67
2022/10/05 12:07:06;;;;;;;8.13;4.72;;;15.90;96.00;;;;;;5091187;28;20113;-65
2022/10/05 12:10:12;;;;;;;7.53;4.60;;;15.90;95.60;;;;;;5097648;28;20063;-65
2022/10/05 12:12:29;;;;;;;6.50;4.50;;;15.90;95.90;;;;;;5107214;27;20054;-65
2022/10/05 12:15:32;;;;;;;8.52;4.25;;;16.00;95.40;;;;;;5090110;28;20055;-64
2022/10/05 12:18:05;;;;;;;6.68;4.20;;;15.90;95.20;;;;;;5110046;28;20048;-64
2022/10/05 12:20:50;;;;;;;8.90;4.28;;;16.00;95.60;;;;;;5094336;28;20043;-65
2022/10/05 12:23:47;;;;;;;5.30;4.10;;;16.00;95.10;;;;;;5090043;28;20036;-65
2022/10/05 12:26:25;;;;;;;5.70;3.90;;;16.00;95.00;;;;;;5106095;28;20039;-65
2022/10/05 12:29:12;;;;;;;6.03;3.80;;;16.10;95.00;;;;;;5111123;28;20052;-65
2022/10/05 12:31:45;;;;;;;6.18;4.30;;;16.10;94.70;;;;;;5106642;28;20131;-65
2022/10/05 12:34:15;;;;;;;6.32;3.72;;;16.10;94.40;;;;;;5118146;27;20059;-65
2022/10/05 12:36:49;;;;;;;6.72;3.90;;;16.20;94.60;;;;;;5121400;27;20146;-64
2022/10/05 12:39:36;;;;;;;6.65;4.10;;;16.30;94.40;;;;;;5096286;27;20382;-64
2022/10/05 12:42:09;;;;;;;5.67;3.40;;;16.60;93.90;;;;;;5125787;27;20039;-65
2022/10/05 12:44:41;;;;;;;6.97;3.85;;;17.30;92.30;;;;;;5086324;27;20100;-65
2022/10/05 12:47:19;;;;;;;5.95;3.80;;;16.90;92.80;;;;;;5123140;27;20120;-67
2022/10/05 12:50:18;;;;;;;7.13;3.85;;;16.80;92.30;;;;;;5118751;27;20500;-64
2022/10/05 12:52:56;;;;;;;6.85;3.50;;;16.90;92.70;;;;;;5107306;27;20136;-66
2022/10/05 12:55:25;;;;;;;4.95;3.38;;;17.70;91.40;;;;;;5109674;28;20072;-66
2022/10/05 12:57:53;;;;;;;6.03;3.53;;;18.10;91.40;;;;;;5123259;27;20264;-66
2022/10/05 13:00:19;;;;;;;;;;;18.30;90.40;;;;;;5123629;27;20113;-68
2022/10/05 13:02:47;;;;;;;8.70;4.53;;;19.10;86.10;;;;;;5112695;27;19907;-66
2022/10/05 13:05:30;;;;;;;8.98;4.90;;;18.40;88.90;;;;;;5127864;27;20039;-65
2022/10/05 13:08:28;;;;;;;7.03;4.00;;;18.40;89.80;;;;;;5100652;27;20583;-66
2022/10/05 13:11:07;;;;;;;6.28;3.72;;;18.60;88.10;;;;;;5129478;27;20043;-66
2022/10/05 13:13:55;;;;;;;6.93;3.75;;;19.40;86.50;;;;;;5106539;28;20695;-64
2022/10/05 13:16:59;;;;;;;7.78;3.92;;;20.00;83.90;;;;;;5112975;27;20056;-68
2022/10/05 13:19:26;;;;;;;6.75;3.63;;;19.60;85.00;;;;;;5124380;27;20047;-66
2022/10/05 13:22:07;;;;;;;7.72;3.72;;;19.50;85.30;;;;;;5129666;27;20380;-65
2022/10/05 13:24:53;;;;;;;6.25;3.83;;;19.30;87.50;;;;;;5120508;27;20043;-66
2022/10/05 13:27:28;;;;;;;7.82;4.07;;;19.60;85.40;;;;;;5129948;27;20471;-64
2022/10/05 13:30:18;;;;;;;7.50;3.97;;;19.50;85.70;;;;;;5129825;27;20368;-64
2022/10/05 13:32:53;;;;;;;8.80;4.15;;;19.40;86.90;;;;;;5096788;27;20345;-62
2022/10/05 13:35:31;;;;;;;8.40;3.88;;;18.80;87.60;;;;;;5123369;27;20054;-63
2022/10/05 13:38:21;;;;;;;6.88;3.97;;;18.70;89.30;;;;;;5123913;27;20055;-64
2022/10/05 13:41:25;;;;;;;6.95;4.35;;;18.70;89.90;;;;;;5117601;27;20046;-63
2022/10/05 13:44:14;;;;;;;7.88;4.10;;;18.40;90.40;;;;;;5128713;27;20039;-65
2022/10/05 13:46:51;;;;;;;7.20;4.13;;;18.30;90.80;;;;;;5087666;27;20074;-65
2022/10/05 13:49:28;;;;;;;5.78;3.53;;;18.40;90.30;;;;;;5122905;27;20039;-65
2022/10/05 13:52:08;;;;;;;6.85;3.40;;;18.30;90.50;;;;;;5108606;28;20453;-65
2022/10/05 13:54:42;;;;;;;7.57;3.70;;;18.20;90.40;;;;;;5116025;27;20492;-66
2022/10/05 13:57:43;;;;;;;5.38;3.45;;;18.10;90.40;;;;;;5125469;27;20089;-65
2022/10/05 14:00:22;;;;;;;6.18;3.08;;;18.00;90.80;;;;;;5091401;28;20047;-66
2022/10/05 14:02:50;;;;;;;4.93;2.80;;;18.10;90.50;;;;;;5111317;27;20035;-66
2022/10/05 14:05:21;;;;;;;7.63;2.95;;;18.30;90.50;;;;;;5090903;27;20066;-66
2022/10/05 14:07:57;;;;;;;6.90;3.30;;;18.30;90.10;;;;;;5127238;27;20051;-67
2022/10/05 14:10:39;;;;;;;6.93;2.47;;;18.50;88.60;;;;;;5126396;27;20047;-67
2022/10/05 14:13:29;;;;;;;4.65;2.65;;;18.40;89.30;;;;;;5109909;28;20039;-64